Terminal Aerodrome Forecast
Issued by NWS

Home | Current Version | Previous Version | Text Only | Print | Product List | Glossary On
Versions: 1 2 3 4 5 6 7 8 9 10 11 12 13 14 15 16 17 18 19 20 21 22 23 24 25 26
000
FTUS42 TJSJ 162322
TAFKPK
TAF
TKPK 162322Z 1700/1724 06011KT P6SM VCSH FEW018 SCT035
     FM170600 05008KT P6SM SCT018
     FM171500 08012KT P6SM FEW022
      AMD NOT SKED 1702/1711=

USA.gov is the U.S. government's official web portal to all federal, state and local government web resources and services.